Time;durP1;ratioP1;P1;durP2;ratioP2;P2;SDS_P1;SDS_P2;PMS_P1;PMS_P2;Temp;Humidity;BMP_temperature;BMP_pressure;BME280_temperature;BME280_humidity;BME280_pressure;Samples;Min_cycle;Max_cycle;Signal;HPM_P1;HPM_P2
2023/03/10 00:01:17;;;;;;;;;;;;;;;14.79;64.98;100008.44;7399975;19;962;-42
2023/03/10 00:03:46;;;;;;;;;;;;;;;14.79;64.76;100011.09;7400028;19;991;-42
2023/03/10 00:06:20;;;;;;;;;;;;;;;14.86;64.50;100014.91;7398335;19;1126;-42
2023/03/10 00:08:52;;;;;;;;;;;;;;;14.95;64.23;99982.22;7399196;19;1122;-43
2023/03/10 00:11:24;;;;;;;;;;;;;;;14.95;64.06;99995.53;7399832;19;1003;-42
2023/03/10 00:13:54;;;;;;;;;;;;;;;14.98;64.03;100003.28;7398975;19;1847;-42
2023/03/10 00:16:23;;;;;;;;;;;;;;;14.94;64.02;99980.53;7399679;19;1014;-42
2023/03/10 00:18:52;;;;;;;;;;;;;;;14.93;64.49;99994.81;7399669;19;1192;-42
2023/03/10 00:21:22;;;;;;;;;;;;;;;14.89;64.63;99999.53;7399602;19;1014;-42
2023/03/10 00:23:50;;;;;;;;;;;;;;;14.89;64.43;100009.34;7398586;19;1039;-42
2023/03/10 00:26:20;;;;;;;;;;;;;;;14.85;64.31;100007.91;7399030;19;974;-42
2023/03/10 00:28:49;;;;;;;;;;;;;;;14.83;64.48;100012.53;7398459;19;1071;-42
2023/03/10 00:31:22;;;;;;;;;;;;;;;14.85;64.78;100013.25;7399172;19;956;-41
2023/03/10 00:33:52;;;;;;;;;;;;;;;14.77;64.79;99991.75;7398871;19;1859;-41
2023/03/10 00:36:21;;;;;;;;;;;;;;;14.76;64.95;100004.19;7399043;19;1017;-42
2023/03/10 00:38:51;;;;;;;;;;;;;;;14.90;64.77;100003.03;7398170;19;1014;-42
2023/03/10 00:41:22;;;;;;;;;;;;;;;15.00;64.13;100016.44;7398195;19;1047;-42
2023/03/10 00:43:52;;;;;;;;;;;;;;;14.99;64.11;100012.94;7397930;19;1070;-42
2023/03/10 00:46:23;;;;;;;;;;;;;;;14.99;64.53;100014.75;7398922;19;1029;-42
2023/03/10 00:48:51;;;;;;;;;;;;;;;14.96;64.15;100009.69;7398785;19;1046;-42
2023/03/10 00:51:21;;;;;;;;;;;;;;;14.93;64.53;100002.81;7395714;19;1270;-41
2023/03/10 00:53:50;;;;;;;;;;;;;;;14.90;64.41;100011.03;7397517;19;1872;-42
2023/03/10 00:56:20;;;;;;;;;;;;;;;14.88;64.38;100024.50;7398590;19;1023;-42
2023/03/10 00:58:48;;;;;;;;;;;;;;;14.84;64.82;100012.41;7398457;19;1122;-42
2023/03/10 01:01:19;;;;;;;;;;;;;;;14.82;64.73;100037.44;7397449;19;1037;-42
2023/03/10 01:03:53;;;;;;;;;;;;;;;14.82;64.67;100014.34;7398260;19;1032;-42
2023/03/10 01:06:21;;;;;;;;;;;;;;;14.77;64.75;100021.03;7396613;19;1105;-42
2023/03/10 01:08:52;;;;;;;;;;;;;;;14.76;65.03;100024.63;7397343;19;1109;-42
2023/03/10 01:11:21;;;;;;;;;;;;;;;14.74;64.74;100038.06;7397326;19;1125;-42
2023/03/10 01:13:49;;;;;;;;;;;;;;;14.78;64.75;100031.53;7397110;19;1094;-42
2023/03/10 01:16:19;;;;;;;;;;;;;;;14.88;64.49;100019.16;7397153;19;1133;-42
2023/03/10 01:18:52;;;;;;;;;;;;;;;14.96;64.36;100033.63;7397639;19;967;-42
2023/03/10 01:21:21;;;;;;;;;;;;;;;14.98;64.48;100050.34;7397146;19;939;-42
2023/03/10 01:23:50;;;;;;;;;;;;;;;14.96;64.50;100039.84;7397456;19;1057;-42
2023/03/10 01:26:19;;;;;;;;;;;;;;;14.92;64.24;100035.69;7396856;19;1215;-42
2023/03/10 01:28:47;;;;;;;;;;;;;;;14.89;64.77;100036.81;7397655;19;1034;-42
2023/03/10 01:31:15;;;;;;;;;;;;;;;14.88;64.50;100039.59;7396715;19;1047;-42
2023/03/10 01:33:44;;;;;;;;;;;;;;;14.82;64.96;100029.44;7396600;19;1043;-42
2023/03/10 01:36:16;;;;;;;;;;;;;;;14.82;64.63;100037.44;7395634;19;1821;-42
2023/03/10 01:38:45;;;;;;;;;;;;;;;14.83;64.89;100042.66;7397422;19;1054;-42
2023/03/10 01:41:14;;;;;;;;;;;;;;;14.78;65.15;100046.66;7396494;19;1069;-42
2023/03/10 01:43:43;;;;;;;;;;;;;;;14.76;65.17;100040.59;7397282;19;982;-41
2023/03/10 01:46:32;;;;;;;;;;;;;;;14.77;65.11;100044.97;7396369;19;1035;-42
2023/03/10 01:49:02;;;;;;;;;;;;;;;14.79;64.61;100048.34;7396321;19;1122;-41
2023/03/10 01:51:35;;;;;;;;;;;;;;;14.86;64.75;100030.88;7397237;19;943;-42
2023/03/10 01:54:04;;;;;;;;;;;;;;;14.93;64.69;100040.06;7396152;19;1861;-42
2023/03/10 01:56:32;;;;;;;;;;;;;;;14.91;64.67;100034.03;7396512;19;998;-42
2023/03/10 01:59:02;;;;;;;;;;;;;;;14.89;64.65;100047.47;7396032;19;1107;-41
2023/03/10 02:01:31;;;;;;;;;;;;;;;14.85;64.69;100034.53;7396652;19;1013;-42
2023/03/10 02:04:03;;;;;;;;;;;;;;;14.79;64.87;100027.06;7403257;19;1137;-42
2023/03/10 02:06:36;;;;;;;;;;;;;;;14.79;64.92;100037.72;7401624;19;1163;-42
2023/03/10 02:09:06;;;;;;;;;;;;;;;14.79;64.79;100045.69;7403188;19;1098;-42
2023/03/10 02:11:35;;;;;;;;;;;;;;;14.74;64.75;100031.91;7403743;19;1041;-42
2023/03/10 02:14:05;;;;;;;;;;;;;;;14.75;65.21;100042.44;7403488;19;975;-42
2023/03/10 02:16:33;;;;;;;;;;;;;;;14.75;64.76;100033.59;7400288;19;1848;-42
2023/03/10 02:19:02;;;;;;;;;;;;;;;14.77;64.83;100031.66;7403651;19;1025;-42
2023/03/10 02:21:41;;;;;;;;;;;;;;;14.82;64.77;100029.44;7403647;19;1037;-42
2023/03/10 02:24:12;;;;;;;;;;;;;;;14.95;64.22;100021.31;7402629;19;959;-42
2023/03/10 02:26:47;;;;;;;;;;;;;;;14.99;64.21;100044.06;7402621;19;1061;-42
2023/03/10 02:29:19;;;;;;;;;;;;;;;14.95;64.53;100031.97;7403197;19;1038;-42
2023/03/10 02:31:48;;;;;;;;;;;;;;;14.90;64.48;100032.31;7403020;19;1042;-42
2023/03/10 02:34:16;;;;;;;;;;;;;;;14.90;64.72;100042.97;7402829;19;1017;-42
2023/03/10 02:36:46;;;;;;;;;;;;;;;14.86;65.04;100046.88;7402964;19;995;-42
2023/03/10 02:39:14;;;;;;;;;;;;;;;14.84;64.67;100054.13;7403045;19;1033;-42
2023/03/10 02:41:44;;;;;;;;;;;;;;;14.83;64.79;100061.28;7402048;19;1043;-42
2023/03/10 02:44:14;;;;;;;;;;;;;;;14.77;65.02;100037.00;7402803;19;1029;-42
2023/03/10 02:46:45;;;;;;;;;;;;;;;14.78;65.09;100033.34;7402482;19;1223;-42
2023/03/10 02:49:14;;;;;;;;;;;;;;;14.74;65.38;100050.53;7402320;19;976;-42
2023/03/10 02:51:44;;;;;;;;;;;;;;;14.74;64.89;100055.84;7401829;19;975;-42
2023/03/10 02:54:13;;;;;;;;;;;;;;;14.72;65.21;100055.97;7402249;19;1063;-42
2023/03/10 02:56:42;;;;;;;;;;;;;;;14.74;64.76;100042.53;7399923;19;1840;-42
2023/03/10 02:59:13;;;;;;;;;;;;;;;14.84;64.78;100070.09;7401518;19;1065;-42
2023/03/10 03:01:42;;;;;;;;;;;;;;;14.91;64.92;100055.31;7402294;19;1022;-42
2023/03/10 03:04:15;;;;;;;;;;;;;;;14.92;64.66;100062.31;7401310;19;1035;-41
2023/03/10 03:06:46;;;;;;;;;;;;;;;14.95;64.60;100067.41;7399930;19;1120;-42
2023/03/10 03:09:16;;;;;;;;;;;;;;;14.89;64.91;100068.75;7401746;19;1030;-42
2023/03/10 03:11:46;;;;;;;;;;;;;;;14.83;65.01;100079.91;7401995;19;1101;-42
2023/03/10 03:14:14;;;;;;;;;;;;;;;14.80;64.82;100077.50;7399132;19;1063;-41
2023/03/10 03:16:43;;;;;;;;;;;;;;;14.74;64.83;100064.69;7399781;19;1839;-42
2023/03/10 03:19:13;;;;;;;;;;;;;;;14.74;64.92;100053.19;7400882;19;1098;-42
2023/03/10 03:21:48;;;;;;;;;;;;;;;14.73;65.17;100063.00;7400831;19;1122;-42
2023/03/10 03:24:20;;;;;;;;;;;;;;;14.71;65.02;100065.78;7400577;19;1087;-42
2023/03/10 03:26:48;;;;;;;;;;;;;;;14.69;65.01;100059.75;7400941;19;1033;-41
2023/03/10 03:29:16;;;;;;;;;;;;;;;14.70;65.27;100079.19;7400456;19;1118;-42
2023/03/10 03:31:46;;;;;;;;;;;;;;;14.73;65.05;100072.81;7400388;19;1165;-42
2023/03/10 03:34:14;;;;;;;;;;;;;;;14.77;65.17;100075.09;7400301;19;1039;-42
2023/03/10 03:36:42;;;;;;;;;;;;;;;14.91;64.86;100079.28;7398311;19;1844;-42
2023/03/10 03:39:12;;;;;;;;;;;;;;;14.90;64.61;100061.59;7400301;19;1031;-42
2023/03/10 03:41:43;;;;;;;;;;;;;;;14.90;64.94;100074.91;7400102;19;1008;-42
2023/03/10 03:44:11;;;;;;;;;;;;;;;14.93;64.78;100064.03;7400371;19;1050;-42
2023/03/10 03:46:40;;;;;;;;;;;;;;;14.88;64.88;100074.19;7400318;19;964;-42
2023/03/10 03:49:09;;;;;;;;;;;;;;;14.85;64.87;100056.66;7399659;19;1043;-42
2023/03/10 03:51:37;;;;;;;;;;;;;;;14.78;64.95;100036.88;7399750;19;1845;-42
2023/03/10 03:54:07;;;;;;;;;;;;;;;14.78;65.17;100054.63;7400124;19;1038;-42
2023/03/10 03:56:36;;;;;;;;;;;;;;;14.74;65.10;100047.88;7398990;19;1865;-42
2023/03/10 03:59:07;;;;;;;;;;;;;;;14.73;65.17;100056.84;7403334;19;1106;-41
2023/03/10 04:01:36;;;;;;;;;;;;;;;14.72;65.07;100048.00;7400093;19;1121;-42
2023/03/10 04:04:04;;;;;;;;;;;;;;;14.76;65.20;100040.59;7399483;19;1042;-42
2023/03/10 04:06:33;;;;;;;;;;;;;;;14.89;64.67;100042.13;7398668;19;1109;-41
2023/03/10 04:09:01;;;;;;;;;;;;;;;14.93;64.40;100041.91;7399123;19;1047;-42
2023/03/10 04:11:29;;;;;;;;;;;;;;;14.83;64.56;100010.69;7399132;19;939;-42
2023/03/10 04:13:57;;;;;;;;;;;;;;;14.83;64.60;100031.16;7398937;19;1043;-41
2023/03/10 04:16:29;;;;;;;;;;;;;;;14.79;65.11;100027.06;7397738;19;1848;-41
2023/03/10 04:18:58;;;;;;;;;;;;;;;14.77;65.29;100015.69;7399617;19;964;-42
2023/03/10 04:21:28;;;;;;;;;;;;;;;14.73;65.22;100023.09;7399681;19;1019;-42
2023/03/10 04:23:56;;;;;;;;;;;;;;;14.73;65.22;100022.25;7398701;19;1089;-42
2023/03/10 04:26:25;;;;;;;;;;;;;;;14.67;65.19;100019.09;7398481;19;1035;-42
2023/03/10 04:28:54;;;;;;;;;;;;;;;14.69;65.10;100017.16;7399305;19;1037;-42
2023/03/10 04:31:23;;;;;;;;;;;;;;;14.68;64.98;100033.25;7398468;19;1133;-42
2023/03/10 04:33:54;;;;;;;;;;;;;;;14.75;65.00;100039.78;7398354;19;1051;-42
2023/03/10 04:36:23;;;;;;;;;;;;;;;14.87;65.06;100037.91;7398006;19;1854;-41
2023/03/10 04:38:53;;;;;;;;;;;;;;;14.88;64.93;100055.56;7398542;19;1042;-42
2023/03/10 04:41:21;;;;;;;;;;;;;;;14.85;64.65;100061.16;7398139;19;1078;-42
2023/03/10 04:43:49;;;;;;;;;;;;;;;14.80;64.73;100055.34;7398084;19;1134;-42
2023/03/10 04:46:18;;;;;;;;;;;;;;;14.77;64.86;100068.94;7397946;19;1118;-42
2023/03/10 04:48:46;;;;;;;;;;;;;;;14.77;64.88;100059.13;7397955;19;1106;-42
2023/03/10 04:51:17;;;;;;;;;;;;;;;14.78;65.16;100068.81;7397900;19;1090;-42
2023/03/10 04:53:45;;;;;;;;;;;;;;;14.74;65.15;100064.69;7398731;19;1034;-42
2023/03/10 04:56:14;;;;;;;;;;;;;;;14.71;65.10;100063.13;7401370;19;1854;-42
2023/03/10 04:58:43;;;;;;;;;;;;;;;14.70;65.22;100058.78;7397638;19;1055;-42
2023/03/10 05:01:14;;;;;;;;;;;;;;;14.70;64.87;100064.09;7397402;19;1122;-42
2023/03/10 05:03:44;;;;;;;;;;;;;;;14.70;65.16;100072.09;7397321;19;986;-41
2023/03/10 05:06:14;;;;;;;;;;;;;;;14.79;64.68;100067.81;7396554;19;1179;-41
2023/03/10 05:08:45;;;;;;;;;;;;;;;14.87;64.86;100060.06;7398242;19;1010;-42
2023/03/10 05:11:15;;;;;;;;;;;;;;;14.87;64.38;100073.38;7398251;19;1029;-42
2023/03/10 05:13:45;;;;;;;;;;;;;;;14.85;64.91;100061.16;7397862;19;1010;-41
2023/03/10 05:16:20;;;;;;;;;;;;;;;14.82;64.88;100061.41;7396331;19;1865;-42
2023/03/10 05:18:50;;;;;;;;;;;;;;;14.77;65.16;100075.09;7398048;19;1046;-42
2023/03/10 05:21:20;;;;;;;;;;;;;;;14.76;64.80;100072.53;7397611;19;1029;-42
2023/03/10 05:23:53;;;;;;;;;;;;;;;14.74;65.04;100053.19;7397825;19;1066;-42
2023/03/10 05:26:21;;;;;;;;;;;;;;;14.75;65.20;100073.53;7397508;19;1027;-42
2023/03/10 05:28:49;;;;;;;;;;;;;;;14.74;65.05;100069.16;7396810;19;1113;-42
2023/03/10 05:31:25;;;;;;;;;;;;;;;14.80;64.70;100072.19;7397373;19;967;-41
2023/03/10 05:33:54;;;;;;;;;;;;;;;14.85;64.71;100058.50;7397329;19;1039;-42
2023/03/10 05:36:24;;;;;;;;;;;;;;;14.96;64.49;100061.13;7395738;19;1870;-42
2023/03/10 05:38:55;;;;;;;;;;;;;;;14.96;64.59;100071.78;7404662;19;1027;-42
2023/03/10 05:41:23;;;;;;;;;;;;;;;15.05;64.12;100060.34;7404989;19;1041;-42
2023/03/10 05:43:51;;;;;;;;;;;;;;;14.98;64.20;100061.84;7403970;19;1044;-42
2023/03/10 05:46:20;;;;;;;;;;;;;;;14.90;64.64;100078.44;7403977;19;1200;-41
2023/03/10 05:48:48;;;;;;;;;;;;;;;14.87;64.40;100068.03;7404472;19;1022;-42
2023/03/10 05:51:16;;;;;;;;;;;;;;;14.87;64.71;100075.19;7404288;19;1073;-42
2023/03/10 05:53:45;;;;;;;;;;;;;;;14.89;64.39;100070.56;7403599;19;1125;-42
2023/03/10 05:56:17;;;;;;;;;;;;;;;14.94;64.54;100067.53;7402613;19;1846;-42
2023/03/10 05:58:47;;;;;;;;;;;;;;;14.86;64.83;100066.38;7404382;19;1010;-42
2023/03/10 06:01:15;;;;;;;;;;;;;;;14.95;64.14;100059.44;7403284;19;1128;-42
2023/03/10 06:03:45;;;;;;;;;;;;;;;14.91;64.48;100079.28;7404303;19;1037;-41
2023/03/10 06:06:15;;;;;;;;;;;;;;;14.93;64.23;100069.34;7401787;19;1186;-42
2023/03/10 06:08:45;;;;;;;;;;;;;;;14.93;64.56;100063.19;7404123;19;962;-41
2023/03/10 06:11:17;;;;;;;;;;;;;;;14.91;64.48;100068.63;7404025;19;1028;-42
2023/03/10 06:13:45;;;;;;;;;;;;;;;15.00;64.12;100064.34;7402994;19;1070;-41
2023/03/10 06:16:14;;;;;;;;;;;;;;;15.07;63.94;100069.06;7402141;19;1862;-42
2023/03/10 06:18:43;;;;;;;;;;;;;;;15.10;63.94;100075.97;7402959;19;1039;-42
2023/03/10 06:21:15;;;;;;;;;;;;;;;15.04;64.37;100079.97;7402856;19;1126;-42
2023/03/10 06:23:43;;;;;;;;;;;;;;;14.97;64.29;100081.44;7403673;19;1037;-42
2023/03/10 06:26:14;;;;;;;;;;;;;;;14.98;64.35;100083.16;7403220;19;1069;-41
2023/03/10 06:28:45;;;;;;;;;;;;;;;14.99;64.65;100091.97;7403358;19;1058;-42
2023/03/10 06:31:17;;;;;;;;;;;;;;;14.96;64.41;100101.06;7402388;19;1027;-42
2023/03/10 06:33:46;;;;;;;;;;;;;;;14.91;64.68;100095.25;7403295;19;963;-42
2023/03/10 06:36:16;;;;;;;;;;;;;;;14.93;64.58;100106.63;7401569;19;1854;-42
2023/03/10 06:38:45;;;;;;;;;;;;;;;14.90;64.83;100097.09;7402176;19;1887;-42
2023/03/10 06:41:15;;;;;;;;;;;;;;;14.88;64.59;100103.47;7403042;19;974;-42
2023/03/10 06:43:47;;;;;;;;;;;;;;;14.86;64.79;100090.31;7402939;19;1022;-42
2023/03/10 06:46:15;;;;;;;;;;;;;;;14.90;64.50;100096.22;7401922;19;1062;-42
2023/03/10 06:48:46;;;;;;;;;;;;;;;14.92;64.46;100088.94;7399270;19;980;-42
2023/03/10 06:51:18;;;;;;;;;;;;;;;14.99;64.62;100094.63;7401762;19;1039;-42
2023/03/10 06:53:49;;;;;;;;;;;;;;;15.22;64.04;100095.38;7402541;19;970;-42
2023/03/10 06:56:19;;;;;;;;;;;;;;;15.29;63.81;100096.56;7401152;19;1865;-42
2023/03/10 06:58:51;;;;;;;;;;;;;;;15.30;63.67;100090.28;7402470;19;1035;-42
2023/03/10 07:01:24;;;;;;;;;;;;;;;15.27;63.59;100083.38;7402275;19;959;-42
2023/03/10 07:03:53;;;;;;;;;;;;;;;15.20;63.83;100060.03;7401327;19;1043;-42
2023/03/10 07:06:22;;;;;;;;;;;;;;;15.22;63.95;100079.41;7399852;19;1161;-42
2023/03/10 07:08:53;;;;;;;;;;;;;;;15.17;63.90;100070.97;7401901;19;1054;-42
2023/03/10 07:11:23;;;;;;;;;;;;;;;15.17;64.08;100060.31;7401150;19;962;-42
2023/03/10 07:13:56;;;;;;;;;;;;;;;15.16;64.08;100070.13;7400995;19;1097;-42
2023/03/10 07:16:25;;;;;;;;;;;;;;;15.21;64.11;100061.75;7401119;19;1837;-42
2023/03/10 07:18:55;;;;;;;;;;;;;;;15.20;63.57;100076.91;7401698;19;1186;-42
2023/03/10 07:21:23;;;;;;;;;;;;;;;15.22;63.90;100068.75;7400802;19;1133;-42
2023/03/10 07:23:52;;;;;;;;;;;;;;;15.23;63.89;100065.13;7400632;19;1094;-42
2023/03/10 07:26:20;;;;;;;;;;;;;;;15.25;63.62;100061.34;7400462;19;1036;-42
2023/03/10 07:28:50;;;;;;;;;;;;;;;15.26;63.48;100068.38;7400586;19;983;-42
2023/03/10 07:31:21;;;;;;;;;;;;;;;15.22;63.89;100061.63;7401376;19;1053;-42
2023/03/10 07:33:50;;;;;;;;;;;;;;;15.17;64.03;100053.16;7400749;19;1051;-42
2023/03/10 07:36:21;;;;;;;;;;;;;;;15.16;64.06;100055.94;7399884;19;1848;-42
2023/03/10 07:38:49;;;;;;;;;;;;;;;15.11;64.32;100041.19;7400719;19;1085;-42
2023/03/10 07:41:19;;;;;;;;;;;;;;;15.13;64.03;100050.91;7400638;19;1069;-41
2023/03/10 07:43:48;;;;;;;;;;;;;;;15.13;64.35;100037.56;7400025;19;1887;-42
2023/03/10 07:46:16;;;;;;;;;;;;;;;15.13;63.92;100054.41;7400648;19;1041;-42
2023/03/10 07:48:48;;;;;;;;;;;;;;;15.08;63.95;100049.47;7400546;19;959;-42
2023/03/10 07:51:16;;;;;;;;;;;;;;;15.07;64.23;100038.94;7400337;19;1022;-42
2023/03/10 07:53:45;;;;;;;;;;;;;;;15.08;64.41;100046.78;7399660;19;1476;-42
2023/03/10 07:56:17;;;;;;;;;;;;;;;15.06;64.53;100042.53;7399442;19;1842;-42
2023/03/10 07:58:45;;;;;;;;;;;;;;;15.06;64.14;100021.25;7400474;19;958;-42
2023/03/10 08:01:16;;;;;;;;;;;;;;;15.03;64.52;100027.69;7398744;19;1124;-42
2023/03/10 08:03:46;;;;;;;;;;;;;;;15.30;63.72;100026.38;7400019;19;1014;-42
2023/03/10 08:06:23;;;;;;;;;;;;;;;15.29;63.55;100003.34;7398475;19;1188;-42
2023/03/10 08:08:51;;;;;;;;;;;;;;;15.32;63.92;100014.59;7399610;19;971;-42
2023/03/10 08:11:20;;;;;;;;;;;;;;;15.29;63.74;100014.00;7399760;19;1003;-42
2023/03/10 08:13:50;;;;;;;;;;;;;;;15.30;63.71;100013.03;7398939;19;1129;-42
2023/03/10 08:16:19;;;;;;;;;;;;;;;15.25;63.83;100017.91;7399727;19;1857;-42
2023/03/10 08:18:50;;;;;;;;;;;;;;;15.26;63.67;100000.94;7399788;19;1026;-41
2023/03/10 08:21:28;;;;;;;;;;;;;;;15.21;64.04;100009.31;7399685;19;1030;-42
2023/03/10 08:23:57;;;;;;;;;;;;;;;15.22;64.06;100021.69;7398755;19;1046;-42
2023/03/10 08:26:26;;;;;;;;;;;;;;;15.22;64.14;100020.81;7399536;19;959;-42
2023/03/10 08:28:54;;;;;;;;;;;;;;;15.24;63.89;100025.06;7398361;19;1125;-42
2023/03/10 08:31:23;;;;;;;;;;;;;;;15.22;63.84;100023.47;7398301;19;1913;-42
2023/03/10 08:33:51;;;;;;;;;;;;;;;15.23;63.88;100009.19;7399269;19;979;-42
2023/03/10 08:36:22;;;;;;;;;;;;;;;15.18;63.82;100014.06;7398175;19;1860;-42
2023/03/10 08:38:53;;;;;;;;;;;;;;;15.18;64.15;100006.06;7398178;19;1821;-42
2023/03/10 08:41:23;;;;;;;;;;;;;;;15.20;64.06;100028.09;7398647;19;974;-42
2023/03/10 08:43:52;;;;;;;;;;;;;;;15.13;64.03;100011.78;7398559;19;960;-42
2023/03/10 08:46:24;;;;;;;;;;;;;;;15.18;64.04;100028.25;7398976;19;1069;-42
2023/03/10 08:48:54;;;;;;;;;;;;;;;15.16;63.93;100019.53;7398430;19;1033;-42
2023/03/10 08:51:23;;;;;;;;;;;;;;;15.18;63.84;100014.06;7398417;19;966;-42
2023/03/10 08:53:54;;;;;;;;;;;;;;;15.19;63.87;100026.41;7397804;19;1001;-42
2023/03/10 08:56:24;;;;;;;;;;;;;;;15.18;64.10;100006.06;7397801;19;2065;-42
2023/03/10 08:58:57;;;;;;;;;;;;;;;15.17;63.99;100020.38;7398090;19;1022;-42
2023/03/10 09:01:27;;;;;;;;;;;;;;;15.18;63.83;100000.75;7397625;19;1928;-42
2023/03/10 09:03:56;;;;;;;;;;;;;;;15.22;64.10;100013.69;7398623;19;1015;-42
2023/03/10 09:06:26;;;;;;;;;;;;;;;15.17;64.11;99991.91;7396764;19;1116;-42
2023/03/10 09:08:57;;;;;;;;;;;;;;;15.20;64.06;99998.78;7397365;19;1023;-42
2023/03/10 09:11:27;;;;;;;;;;;;;;;15.20;63.98;99990.78;7396713;19;1093;-42
2023/03/10 09:13:55;;;;;;;;;;;;;;;15.24;63.74;99995.75;7397891;19;1042;-42
2023/03/10 09:16:23;;;;;;;;;;;;;;;15.20;63.78;99985.47;7398063;19;954;-42
2023/03/10 09:18:52;;;;;;;;;;;;;;;15.25;63.96;99988.59;7395345;19;1845;-42
2023/03/10 09:21:21;;;;;;;;;;;;;;;15.22;63.96;99983.53;7397936;19;959;-42
2023/03/10 09:23:51;;;;;;;;;;;;;;;15.23;63.87;99971.91;7396970;19;1125;-41
2023/03/10 09:26:23;;;;;;;;;;;;;;;15.21;64.23;99981.84;7396882;19;1066;-42
2023/03/10 09:28:53;;;;;;;;;;;;;;;15.25;64.25;99977.94;7398206;19;958;-42
2023/03/10 09:31:23;;;;;;;;;;;;;;;15.26;63.95;99953.00;7397649;19;987;-42
2023/03/10 09:33:52;;;;;;;;;;;;;;;15.29;63.77;99952.75;7396748;19;1062;-42
2023/03/10 09:36:20;;;;;;;;;;;;;;;15.29;63.80;99952.75;7396917;19;1058;-42
2023/03/10 09:38:49;;;;;;;;;;;;;;;15.31;64.09;99951.63;7395380;19;1909;-42
2023/03/10 09:41:32;;;;;;;;;;;;;;;15.32;64.04;99934.69;7396602;19;994;-42
2023/03/10 09:44:04;;;;;;;;;;;;;;;15.33;63.62;99938.19;7397319;19;1026;-42
2023/03/10 09:46:36;;;;;;;;;;;;;;;15.34;63.88;99933.69;7397282;19;1044;-42
2023/03/10 09:49:11;;;;;;;;;;;;;;;15.31;63.52;99919.66;7397209;19;1018;-42
2023/03/10 09:51:43;;;;;;;;;;;;;;;15.31;63.70;99934.81;7397012;19;1029;-42
2023/03/10 09:54:21;;;;;;;;;;;;;;;15.32;63.66;99915.19;7396141;19;1082;-42
2023/03/10 09:56:53;;;;;;;;;;;;;;;15.30;63.75;99909.16;7396442;19;1867;-42
2023/03/10 09:59:26;;;;;;;;;;;;;;;15.31;63.62;99892.19;7396016;19;1031;-42
2023/03/10 10:01:56;;;;;;;;;;;;;;;15.30;63.61;99911.81;7396703;19;1089;-42
2023/03/10 10:04:30;;;;;;;;;;;;;;;15.31;64.12;99902.84;7396665;19;994;-42
2023/03/10 10:07:02;;;;;;;;;;;;;;;15.24;64.10;99881.22;7394306;19;1124;-42
2023/03/10 10:09:34;;;;;;;;;;;;;;;15.30;63.98;99903.84;7395900;19;1113;-42
2023/03/10 10:12:12;;;;;;;;;;;;;;;15.27;64.16;99904.91;7395688;19;1081;-42
2023/03/10 10:14:40;;;;;;;;;;;;;;;15.28;64.12;99905.78;7395598;19;1872;-42
2023/03/10 10:17:21;;;;;;;;;;;;;;;15.27;64.25;99904.09;7396144;19;1873;-42
2023/03/10 10:19:49;;;;;;;;;;;;;;;15.25;63.94;99896.22;7395464;19;1047;-42
2023/03/10 10:22:23;;;;;;;;;;;;;;;15.24;63.78;99881.22;7396336;19;1041;-42
2023/03/10 10:25:01;;;;;;;;;;;;;;;15.26;63.91;99889.06;7403080;19;1042;-42
2023/03/10 10:27:32;;;;;;;;;;;;;;;15.28;63.83;99881.81;7403274;19;1042;-42
2023/03/10 10:30:00;;;;;;;;;;;;;;;15.29;63.98;99875.50;7403198;19;975;-42
2023/03/10 10:32:28;;;;;;;;;;;;;;;15.29;63.93;99867.50;7402494;19;1114;-42
2023/03/10 10:35:13;;;;;;;;;;;;;;;15.27;64.01;99864.13;7402360;19;1055;-42
2023/03/10 10:37:42;;;;;;;;;;;;;;;15.31;63.64;99876.19;7402173;19;1854;-42
2023/03/10 10:40:24;;;;;;;;;;;;;;;15.32;63.90;99856.59;7403207;19;1034;-42
2023/03/10 10:42:57;;;;;;;;;;;;;;;15.35;63.71;99858.97;7402199;19;1037;-42
2023/03/10 10:45:27;;;;;;;;;;;;;;;15.37;63.52;99850.84;7402037;19;1066;-42
2023/03/10 10:47:56;;;;;;;;;;;;;;;15.41;63.51;99850.44;7402056;19;1852;-41
2023/03/10 10:50:25;;;;;;;;;;;;;;;15.40;63.59;99859.44;7402550;19;960;-42
2023/03/10 10:53:14;;;;;;;;;;;;;;;15.41;63.84;99855.78;7402699;19;1061;-42
2023/03/10 10:55:44;;;;;;;;;;;;;;;15.39;63.70;99831.09;7401670;19;982;-42
2023/03/10 10:58:28;;;;;;;;;;;;;;;15.38;63.57;99834.75;7400405;19;2159;-42
2023/03/10 11:00:57;;;;;;;;;;;;;;;15.36;63.79;99819.84;7401513;19;1031;-42
2023/03/10 11:03:28;;;;;;;;;;;;;;;15.39;63.52;99831.09;7398982;19;972;-42
2023/03/10 11:05:57;;;;;;;;;;;;;;;15.37;63.76;99811.72;7400356;19;1375;-42
2023/03/10 11:08:33;;;;;;;;;;;;;;;15.36;63.78;99810.06;7402194;19;958;-42
2023/03/10 11:11:04;;;;;;;;;;;;;;;15.35;63.67;99811.03;7401272;19;1228;-42
2023/03/10 11:13:40;;;;;;;;;;;;;;;15.36;63.89;99793.22;7401265;19;1043;-42
2023/03/10 11:16:15;;;;;;;;;;;;;;;15.36;63.76;99799.41;7401016;19;1968;-42
2023/03/10 11:18:47;;;;;;;;;;;;;;;15.35;63.67;99786.22;7400282;19;1847;-42
2023/03/10 11:21:21;;;;;;;;;;;;;;;15.36;63.69;99788.75;7401522;19;1018;-42
2023/03/10 11:23:56;;;;;;;;;;;;;;;15.35;63.99;99775.56;7400780;19;1121;-42
2023/03/10 11:26:29;;;;;;;;;;;;;;;15.32;63.71;99766.88;7400678;19;1042;-42
2023/03/10 11:29:06;;;;;;;;;;;;;;;15.31;63.82;99774.97;7401519;19;1053;-42
2023/03/10 11:31:41;;;;;;;;;;;;;;;15.35;63.93;99756.91;7401415;19;1050;-42
2023/03/10 11:34:29;;;;;;;;;;;;;;;15.31;63.77;99764.31;7400947;19;1022;-42
2023/03/10 11:37:01;;;;;;;;;;;;;;;15.30;64.26;99760.00;7400237;19;974;-42
2023/03/10 11:39:36;;;;;;;;;;;;;;;15.30;63.68;99754.66;7398288;19;1844;-42
2023/03/10 11:42:12;;;;;;;;;;;;;;;15.31;63.85;99740.34;7401143;19;959;-42
2023/03/10 11:44:43;;;;;;;;;;;;;;;15.31;64.13;99748.34;7400251;19;1050;-42
2023/03/10 11:47:19;;;;;;;;;;;;;;;15.28;63.82;99722.00;7399953;19;1046;-42
2023/03/10 11:49:50;;;;;;;;;;;;;;;15.31;64.21;99719.03;7400088;19;1062;-42
2023/03/10 11:52:22;;;;;;;;;;;;;;;15.30;63.87;99714.72;7399805;19;1116;-42
2023/03/10 11:54:51;;;;;;;;;;;;;;;15.34;63.86;99707.28;7399728;19;1046;-42
2023/03/10 11:57:22;;;;;;;;;;;;;;;15.31;64.03;99684.41;7400449;19;1175;-42
2023/03/10 11:59:51;;;;;;;;;;;;;;;15.35;64.00;99704.47;7399589;19;1094;-42
2023/03/10 12:02:25;;;;;;;;;;;;;;;15.33;63.95;99685.13;7399366;19;1090;-42
2023/03/10 12:04:56;;;;;;;;;;;;;;;15.33;64.13;99677.13;7399057;19;1315;-42
2023/03/10 12:07:28;;;;;;;;;;;;;;;15.36;63.88;99676.88;7400231;19;1033;-42
2023/03/10 12:09:59;;;;;;;;;;;;;;;15.31;63.93;99674.59;7400101;19;1046;-42
2023/03/10 12:12:29;;;;;;;;;;;;;;;15.31;64.25;99660.44;7399160;19;1109;-42
2023/03/10 12:14:58;;;;;;;;;;;;;;;15.27;63.86;99677.69;7399062;19;1155;-42
2023/03/10 12:17:30;;;;;;;;;;;;;;;15.28;63.90;99636.78;7399844;19;1008;-42
2023/03/10 12:20:10;;;;;;;;;;;;;;;15.27;64.21;99651.06;7399004;19;1129;-42
2023/03/10 12:22:40;;;;;;;;;;;;;;;15.27;64.39;99653.72;7399722;19;1027;-42
2023/03/10 12:25:23;;;;;;;;;;;;;;;15.28;64.15;99644.75;7399643;19;1029;-42
2023/03/10 12:28:15;;;;;;;;;;;;;;;15.26;64.11;99641.38;7398855;19;1526;-42
2023/03/10 12:30:47;;;;;;;;;;;;;;;15.25;64.40;99631.72;7397731;19;2116;-42
2023/03/10 12:33:30;;;;;;;;;;;;;;;15.21;64.44;99627.63;7398457;19;1038;-42
2023/03/10 12:36:04;;;;;;;;;;;;;;;15.18;64.51;99620.78;7398521;19;1545;-42
2023/03/10 12:38:33;;;;;;;;;;;;;;;15.20;64.27;99618.81;7397927;19;1838;-42
2023/03/10 12:41:02;;;;;;;;;;;;;;;15.21;64.12;99609.00;7398282;19;1109;-42
2023/03/10 12:43:45;;;;;;;;;;;;;;;15.23;64.34;99613.19;7399031;19;1058;-42
2023/03/10 12:46:17;;;;;;;;;;;;;;;15.20;64.43;99597.50;7396454;19;1111;-42
2023/03/10 12:48:48;;;;;;;;;;;;;;;15.19;64.50;99601.13;7397304;19;1047;-42
2023/03/10 12:51:24;;;;;;;;;;;;;;;15.20;64.34;99607.31;7398588;19;954;-44
2023/03/10 12:53:58;;;;;;;;;;;;;;;15.21;64.36;99598.34;7398158;19;1036;-43
2023/03/10 12:56:40;;;;;;;;;;;;;;;15.20;64.56;99597.50;7398400;19;962;-43
2023/03/10 12:59:11;;;;;;;;;;;;;;;15.22;64.56;99586.69;7397469;19;1865;-43
2023/03/10 13:01:43;;;;;;;;;;;;;;;15.23;64.57;99580.41;7398230;19;1182;-43
2023/03/10 13:04:14;;;;;;;;;;;;;;;15.25;64.11;99578.44;7397488;19;1051;-43
2023/03/10 13:06:46;;;;;;;;;;;;;;;15.25;64.01;99551.81;7397151;19;1156;-43
2023/03/10 13:09:18;;;;;;;;;;;;;;;15.28;64.11;99572.84;7396223;19;960;-43
2023/03/10 13:11:51;;;;;;;;;;;;;;;15.25;64.11;99563.28;7397349;19;1130;-43